createdAt,value
2023-12-24T00:02:29.458Z,5.10
2023-12-24T00:04:59.053Z,5.17
2023-12-24T00:07:29.963Z,5.43
2023-12-24T00:10:01.117Z,4.77
2023-12-24T00:12:29.902Z,4.90
2023-12-24T00:14:59.820Z,5.40
2023-12-24T00:17:28.952Z,5.20
2023-12-24T00:19:59.409Z,4.33
2023-12-24T00:22:32.058Z,5.43
2023-12-24T00:25:02.025Z,5.53
2023-12-24T00:27:33.363Z,4.77
2023-12-24T00:30:10.078Z,5.30
2023-12-24T00:32:40.353Z,5.23
2023-12-24T00:35:11.007Z,5.30
2023-12-24T00:37:44.262Z,4.50
2023-12-24T00:40:15.456Z,5.13
2023-12-24T00:42:46.915Z,5.33
2023-12-24T00:45:20.078Z,6.60
2023-12-24T00:47:59.741Z,5.07
2023-12-24T00:50:29.956Z,5.10
2023-12-24T00:53:01.758Z,4.97
2023-12-24T00:55:31.616Z,5.30
2023-12-24T00:58:04.298Z,4.83
2023-12-24T01:00:34.377Z,4.97
2023-12-24T01:03:05.495Z,5.00
2023-12-24T01:05:36.054Z,5.63
2023-12-24T01:08:22.768Z,5.80
2023-12-24T01:10:54.013Z,5.00
2023-12-24T01:13:26.775Z,4.83
2023-12-24T01:15:56.178Z,5.07
2023-12-24T01:18:26.251Z,5.03
2023-12-24T01:20:58.419Z,6.07
2023-12-24T01:23:29.960Z,5.43
2023-12-24T01:25:59.899Z,6.07
2023-12-24T01:28:29.155Z,4.17
2023-12-24T01:30:59.448Z,4.83
2023-12-24T01:33:29.331Z,5.20
2023-12-24T01:36:00.668Z,4.87
2023-12-24T01:38:32.211Z,4.97
2023-12-24T01:41:06.744Z,4.90
2023-12-24T01:43:36.329Z,4.60
2023-12-24T01:46:11.336Z,4.57
2023-12-24T01:48:43.057Z,4.40
2023-12-24T01:51:14.372Z,4.03
2023-12-24T01:54:04.699Z,3.67
2023-12-24T01:56:35.888Z,4.17
2023-12-24T01:59:07.054Z,3.63
2023-12-24T02:01:37.947Z,4.13
2023-12-24T02:04:09.425Z,3.90
2023-12-24T02:06:39.834Z,3.47
2023-12-24T02:09:13.996Z,4.03
2023-12-24T02:11:43.314Z,4.43
2023-12-24T02:14:13.506Z,3.10
2023-12-24T02:16:45.474Z,2.60
2023-12-24T02:19:22.219Z,3.07
2023-12-24T02:21:54.372Z,2.83
2023-12-24T02:24:23.763Z,2.70
2023-12-24T02:27:08.988Z,2.50
2023-12-24T02:29:45.597Z,2.53
2023-12-24T02:32:18.360Z,2.73
2023-12-24T02:34:50.747Z,2.90
2023-12-24T02:37:26.124Z,2.77
2023-12-24T02:39:56.485Z,3.20
2023-12-24T02:42:26.903Z,3.10
2023-12-24T02:44:57.651Z,3.30
2023-12-24T02:47:28.817Z,3.07
2023-12-24T02:50:02.150Z,3.20
2023-12-24T02:52:34.933Z,3.50
2023-12-24T02:55:08.784Z,3.47
2023-12-24T02:57:38.559Z,3.57
2023-12-24T03:00:10.255Z,4.37
2023-12-24T03:02:42.569Z,4.53
2023-12-24T03:05:13.193Z,4.33
2023-12-24T03:07:44.096Z,4.20
2023-12-24T03:10:14.865Z,3.93
2023-12-24T03:12:44.961Z,3.83
2023-12-24T03:15:16.082Z,4.17
2023-12-24T03:17:48.036Z,3.70
2023-12-24T03:20:18.232Z,3.67
2023-12-24T03:22:52.851Z,4.00
2023-12-24T03:25:25.703Z,3.80
2023-12-24T03:27:58.000Z,2.93
2023-12-24T03:30:29.087Z,3.00
2023-12-24T03:32:59.349Z,2.53
2023-12-24T03:35:29.477Z,2.87
2023-12-24T03:38:02.261Z,2.60
2023-12-24T03:40:34.998Z,2.70
2023-12-24T03:43:04.968Z,2.90
2023-12-24T03:45:34.278Z,2.73
2023-12-24T03:48:07.720Z,2.37
2023-12-24T03:50:39.083Z,2.70
2023-12-24T03:53:12.873Z,3.07
2023-12-24T03:55:42.641Z,2.67
2023-12-24T03:58:16.338Z,2.03
2023-12-24T04:00:46.730Z,2.53
2023-12-24T04:03:16.322Z,2.37
2023-12-24T04:05:45.770Z,2.60
2023-12-24T04:08:18.911Z,1.97
2023-12-24T04:10:50.163Z,2.50
2023-12-24T04:13:20.943Z,2.30
2023-12-24T04:15:52.041Z,2.40
2023-12-24T04:18:22.507Z,2.50
2023-12-24T04:20:52.627Z,2.20
2023-12-24T04:23:24.363Z,1.90
2023-12-24T04:25:54.748Z,2.23
2023-12-24T04:28:24.740Z,1.90
2023-12-24T04:30:53.864Z,1.90
2023-12-24T04:33:25.269Z,1.90
2023-12-24T04:35:55.889Z,2.00
2023-12-24T04:38:27.415Z,2.00
2023-12-24T04:43:44.456Z,1.50
2023-12-24T04:46:14.184Z,1.97
2023-12-24T04:48:43.661Z,1.70
2023-12-24T04:51:13.998Z,1.57
2023-12-24T04:53:45.728Z,1.60
2023-12-24T04:56:26.502Z,1.33
2023-12-24T04:58:58.592Z,1.83
2023-12-24T05:01:28.402Z,1.83
2023-12-24T05:03:58.592Z,1.40
2023-12-24T05:06:31.409Z,1.60
2023-12-24T05:09:04.112Z,1.50
2023-12-24T05:11:34.274Z,1.40
2023-12-24T05:14:04.924Z,1.43
2023-12-24T05:16:35.889Z,1.73
2023-12-24T05:19:06.365Z,1.37
2023-12-24T05:21:37.286Z,1.40
2023-12-24T05:24:09.107Z,1.90
2023-12-24T05:26:39.993Z,1.70
2023-12-24T05:29:09.841Z,1.70
2023-12-24T05:31:41.609Z,2.10
2023-12-24T05:34:11.341Z,2.07
2023-12-24T05:36:42.026Z,2.10
2023-12-24T05:39:13.470Z,1.90
2023-12-24T05:41:46.261Z,2.20
2023-12-24T05:44:16.673Z,1.90
2023-12-24T05:46:47.179Z,2.10
2023-12-24T05:49:16.241Z,1.90
2023-12-24T05:51:46.253Z,2.30
2023-12-24T05:54:18.823Z,2.50
2023-12-24T05:56:48.239Z,2.53
2023-12-24T05:59:18.599Z,3.07
2023-12-24T06:01:47.914Z,2.80
2023-12-24T06:04:18.742Z,3.00
2023-12-24T06:06:48.072Z,2.40
2023-12-24T06:09:20.089Z,3.10
2023-12-24T06:11:49.961Z,2.83
2023-12-24T06:14:19.784Z,2.83
2023-12-24T06:16:51.990Z,3.00
2023-12-24T06:19:22.454Z,2.80
2023-12-24T06:21:52.964Z,3.33
2023-12-24T06:24:28.886Z,3.03
2023-12-24T06:27:00.243Z,3.30
2023-12-24T06:29:29.949Z,3.30
2023-12-24T06:32:00.218Z,4.30
2023-12-24T06:34:29.669Z,4.27
2023-12-24T06:36:59.637Z,4.10
2023-12-24T06:39:30.586Z,3.97
2023-12-24T06:41:59.997Z,4.43
2023-12-24T06:44:33.243Z,4.30
2023-12-24T06:47:03.137Z,4.80
2023-12-24T06:49:32.709Z,4.53
2023-12-24T06:52:05.399Z,5.17
2023-12-24T06:54:37.083Z,5.90
2023-12-24T06:57:08.241Z,6.27
2023-12-24T06:59:38.363Z,6.47
2023-12-24T07:02:09.611Z,6.47
2023-12-24T07:04:40.428Z,6.30
2023-12-24T07:07:10.185Z,6.03
2023-12-24T07:09:44.155Z,6.27
2023-12-24T07:12:13.357Z,7.33
2023-12-24T07:14:51.409Z,6.80
2023-12-24T07:17:22.164Z,7.80
2023-12-24T07:19:52.320Z,5.97
2023-12-24T07:22:22.566Z,6.97
2023-12-24T07:24:54.333Z,7.00
2023-12-24T07:27:24.007Z,7.30
2023-12-24T07:29:54.410Z,8.23
2023-12-24T07:32:24.067Z,7.33
2023-12-24T07:34:53.773Z,7.30
2023-12-24T07:37:23.481Z,6.87
2023-12-24T07:39:54.606Z,7.23
2023-12-24T07:42:24.112Z,6.10
2023-12-24T07:44:53.990Z,5.73
2023-12-24T07:47:23.841Z,6.00
2023-12-24T07:49:54.754Z,5.97
2023-12-24T07:52:29.436Z,6.00
2023-12-24T07:55:00.158Z,7.00
2023-12-24T07:57:29.540Z,7.33
2023-12-24T07:59:59.545Z,6.27
2023-12-24T08:02:29.345Z,7.03
2023-12-24T08:05:00.036Z,6.40
2023-12-24T08:07:29.671Z,7.03
2023-12-24T08:10:01.080Z,6.43
2023-12-24T08:12:34.146Z,6.47
2023-12-24T08:15:08.231Z,6.00
2023-12-24T08:17:38.166Z,6.53
2023-12-24T08:20:10.699Z,6.33
2023-12-24T08:22:40.372Z,5.57
2023-12-24T08:25:11.944Z,5.80
2023-12-24T08:27:41.652Z,6.70
2023-12-24T08:30:14.724Z,6.20
2023-12-24T08:32:43.982Z,6.20
2023-12-24T08:35:14.617Z,6.17
2023-12-24T08:37:44.086Z,6.20
2023-12-24T08:40:19.978Z,6.93
2023-12-24T08:42:50.898Z,6.53
2023-12-24T08:45:24.303Z,6.40
2023-12-24T08:47:54.033Z,6.23
2023-12-24T08:50:23.852Z,6.03
2023-12-24T08:52:55.994Z,5.70
2023-12-24T08:55:26.520Z,6.13
2023-12-24T08:57:57.501Z,5.97
2023-12-24T09:00:27.504Z,5.67
2023-12-24T09:02:59.488Z,5.53
2023-12-24T09:05:29.710Z,6.03
2023-12-24T09:08:00.328Z,6.07
2023-12-24T09:10:41.185Z,5.40
2023-12-24T09:13:10.613Z,5.13
2023-12-24T09:15:42.534Z,5.87
2023-12-24T09:18:12.789Z,6.23
2023-12-24T09:20:43.764Z,6.63
2023-12-24T09:23:13.518Z,6.73
2023-12-24T09:25:45.845Z,6.10
2023-12-24T09:28:15.637Z,6.67
2023-12-24T09:30:45.158Z,7.47
2023-12-24T09:33:16.179Z,7.97
2023-12-24T09:35:49.988Z,8.00
2023-12-24T09:38:21.323Z,8.70
2023-12-24T09:40:52.627Z,8.93
2023-12-24T09:43:27.997Z,8.90
2023-12-24T09:45:59.327Z,8.80
2023-12-24T09:48:29.394Z,8.93
2023-12-24T09:50:59.298Z,8.90
2023-12-24T09:53:36.156Z,8.73
2023-12-24T09:56:10.579Z,8.83
2023-12-24T09:58:41.338Z,8.80
2023-12-24T10:01:11.362Z,7.63
2023-12-24T10:03:40.650Z,8.07
2023-12-24T10:06:11.709Z,9.00
2023-12-24T10:08:45.222Z,7.77
2023-12-24T10:11:22.039Z,7.70
2023-12-24T10:14:05.173Z,8.57
2023-12-24T10:16:46.433Z,9.23
2023-12-24T10:19:26.999Z,7.77
2023-12-24T10:22:06.021Z,8.73
2023-12-24T10:24:42.572Z,9.70
2023-12-24T10:27:16.791Z,9.57
2023-12-24T10:29:49.917Z,9.87
2023-12-24T10:32:29.794Z,10.10
2023-12-24T10:35:03.353Z,8.27
2023-12-24T10:37:34.955Z,9.97
2023-12-24T10:40:13.942Z,10.27
2023-12-24T10:42:48.240Z,9.47
2023-12-24T10:45:18.631Z,9.93
2023-12-24T10:47:53.218Z,9.57
2023-12-24T10:50:24.211Z,9.70
2023-12-24T10:52:55.510Z,10.43
2023-12-24T10:55:28.780Z,8.50
2023-12-24T10:58:13.532Z,10.50
2023-12-24T11:00:43.133Z,10.63
2023-12-24T11:03:14.782Z,8.70
2023-12-24T11:05:53.248Z,10.43
2023-12-24T11:08:36.244Z,8.27
2023-12-24T11:11:11.800Z,9.33
2023-12-24T11:13:51.543Z,10.40
2023-12-24T11:16:43.669Z,10.20
2023-12-24T11:19:29.915Z,8.60
2023-12-24T11:22:12.635Z,9.03
2023-12-24T11:24:52.229Z,8.70
2023-12-24T11:27:31.442Z,8.33
2023-12-24T11:30:14.020Z,8.80
2023-12-24T11:32:44.171Z,8.83
2023-12-24T11:35:55.711Z,9.17
2023-12-24T11:38:46.646Z,8.90
2023-12-24T11:41:20.346Z,8.23
2023-12-24T11:44:00.366Z,8.00
2023-12-24T11:46:34.732Z,8.40
2023-12-24T11:49:09.596Z,8.23
2023-12-24T11:51:40.904Z,7.37
2023-12-24T11:54:10.748Z,7.43
2023-12-24T11:56:41.305Z,8.10
2023-12-24T11:59:14.835Z,7.37
2023-12-24T12:01:46.401Z,6.20
2023-12-24T12:04:16.105Z,6.53
2023-12-24T12:06:45.793Z,6.20
2023-12-24T12:09:19.451Z,5.70
2023-12-24T12:11:52.144Z,6.50
2023-12-24T12:14:26.568Z,7.10
2023-12-24T12:17:02.143Z,6.60
2023-12-24T12:19:35.941Z,7.30
2023-12-24T12:22:06.789Z,7.37
2023-12-24T12:24:38.267Z,8.07
2023-12-24T12:27:09.566Z,8.20
2023-12-24T12:29:39.760Z,8.20
2023-12-24T12:32:12.243Z,7.20
2023-12-24T12:34:42.624Z,7.00
2023-12-24T12:37:13.663Z,6.87
2023-12-24T12:39:43.337Z,7.40
2023-12-24T12:42:14.160Z,6.93
2023-12-24T12:44:44.226Z,7.10
2023-12-24T12:47:16.517Z,7.00
2023-12-24T12:49:47.187Z,6.47
2023-12-24T12:52:20.636Z,7.50
2023-12-24T12:54:50.209Z,6.90
2023-12-24T12:57:31.896Z,6.63
2023-12-24T13:00:11.163Z,7.63
2023-12-24T13:02:45.257Z,7.97
2023-12-24T13:05:36.777Z,8.03
2023-12-24T13:08:16.518Z,8.17
2023-12-24T13:10:47.307Z,7.53
2023-12-24T13:13:22.715Z,8.27
2023-12-24T13:16:06.290Z,7.13
2023-12-24T13:18:38.811Z,7.33
2023-12-24T13:21:10.982Z,8.20
2023-12-24T13:23:42.062Z,8.50
2023-12-24T13:26:11.941Z,9.30
2023-12-24T13:28:42.765Z,8.80
2023-12-24T13:31:12.899Z,8.47
2023-12-24T13:33:47.294Z,9.23
2023-12-24T13:36:16.714Z,7.33
2023-12-24T13:38:48.009Z,7.03
2023-12-24T13:41:18.005Z,8.60
2023-12-24T13:43:46.982Z,8.07
2023-12-24T13:46:16.763Z,8.37
2023-12-24T13:48:52.029Z,8.57
2023-12-24T13:51:21.594Z,10.60
2023-12-24T13:53:53.958Z,9.73
2023-12-24T13:56:23.775Z,9.57
2023-12-24T13:58:55.011Z,8.77
2023-12-24T14:01:24.439Z,8.60
2023-12-24T14:03:55.678Z,7.10
2023-12-24T14:06:26.069Z,7.13
2023-12-24T14:09:00.515Z,7.10
2023-12-24T14:11:31.700Z,6.70
2023-12-24T14:14:02.302Z,5.17
2023-12-24T14:16:33.609Z,6.10
2023-12-24T14:19:04.883Z,5.17
2023-12-24T14:21:35.799Z,5.10
2023-12-24T14:24:06.083Z,8.03
2023-12-24T14:26:36.043Z,8.97
2023-12-24T14:29:05.540Z,4.10
2023-12-24T14:31:35.762Z,3.17
2023-12-24T14:34:08.535Z,3.17
2023-12-24T14:36:38.202Z,3.60
2023-12-24T14:39:11.901Z,3.60
2023-12-24T14:41:46.542Z,3.10
2023-12-24T14:44:16.589Z,2.90
2023-12-24T14:46:46.828Z,3.10
2023-12-24T14:49:22.159Z,2.57
2023-12-24T14:51:52.962Z,2.93
2023-12-24T14:54:26.401Z,2.73
2023-12-24T14:56:56.030Z,2.87
2023-12-24T14:59:31.924Z,2.13
2023-12-24T15:02:04.623Z,2.43
2023-12-24T15:04:37.153Z,2.03
2023-12-24T15:07:08.358Z,6.10
2023-12-24T15:09:37.339Z,3.93
2023-12-24T15:12:10.641Z,2.93
2023-12-24T15:14:40.553Z,1.50
2023-12-24T15:17:14.347Z,2.10
2023-12-24T15:19:46.789Z,1.50
2023-12-24T15:22:17.040Z,1.57
2023-12-24T15:24:46.858Z,1.80
2023-12-24T15:27:18.683Z,2.10
2023-12-24T15:29:50.516Z,1.77
2023-12-24T15:32:21.655Z,2.13
2023-12-24T15:34:53.579Z,2.40
2023-12-24T15:37:23.394Z,2.80
2023-12-24T15:39:54.241Z,1.97
2023-12-24T15:42:30.404Z,3.20
2023-12-24T15:45:00.436Z,2.73
2023-12-24T15:47:32.731Z,2.00
2023-12-24T15:50:14.976Z,2.07
2023-12-24T15:52:53.535Z,2.00
2023-12-24T15:55:23.651Z,2.87
2023-12-24T15:57:52.810Z,2.90
2023-12-24T16:00:29.783Z,2.70
2023-12-24T16:03:02.136Z,3.07
2023-12-24T16:05:37.429Z,2.93
2023-12-24T16:08:08.715Z,3.20
2023-12-24T16:10:38.592Z,3.00
2023-12-24T16:13:08.448Z,3.33
2023-12-24T16:15:38.018Z,3.50
2023-12-24T16:18:17.803Z,3.97
2023-12-24T16:20:49.604Z,4.10
2023-12-24T16:23:25.536Z,4.30
2023-12-24T16:26:01.973Z,3.93
2023-12-24T16:28:31.068Z,3.53
2023-12-24T16:31:01.032Z,5.53
2023-12-24T16:33:32.127Z,6.60
2023-12-24T16:36:09.696Z,5.27
2023-12-24T16:38:39.158Z,4.40
2023-12-24T16:41:09.289Z,8.87
2023-12-24T16:43:38.833Z,3.67
2023-12-24T16:46:11.116Z,5.10
2023-12-24T16:48:40.641Z,4.47
2023-12-24T16:51:18.718Z,4.57
2023-12-24T16:53:48.673Z,5.33
2023-12-24T16:56:19.405Z,4.57
2023-12-24T16:58:50.354Z,4.40
2023-12-24T17:01:20.926Z,4.00
2023-12-24T17:03:51.755Z,4.67
2023-12-24T17:06:24.008Z,4.50
2023-12-24T17:08:54.842Z,4.33
2023-12-24T17:11:27.963Z,3.97
2023-12-24T17:14:01.994Z,4.93
2023-12-24T17:16:31.894Z,4.83
2023-12-24T17:19:08.240Z,4.83
2023-12-24T17:21:40.160Z,4.33
2023-12-24T17:24:10.405Z,4.17
2023-12-24T17:26:43.461Z,5.27
2023-12-24T17:29:13.964Z,5.23
2023-12-24T17:31:44.629Z,6.10
2023-12-24T17:34:14.283Z,5.57
2023-12-24T17:36:57.902Z,5.77
2023-12-24T17:39:28.666Z,5.67
2023-12-24T17:41:57.621Z,5.40
2023-12-24T17:44:27.480Z,7.17
2023-12-24T17:47:00.388Z,4.83
2023-12-24T17:49:30.476Z,5.57
2023-12-24T17:52:05.400Z,6.03
2023-12-24T17:54:36.541Z,11.30
2023-12-24T17:57:08.483Z,5.47
2023-12-24T17:59:38.130Z,5.43
2023-12-24T18:02:12.130Z,5.00
2023-12-24T18:04:41.743Z,4.07
2023-12-24T18:07:23.480Z,5.33
2023-12-24T18:09:56.504Z,5.10
2023-12-24T18:12:28.674Z,4.53
2023-12-24T18:14:58.664Z,4.10
2023-12-24T18:17:29.464Z,4.70
2023-12-24T18:19:59.693Z,4.17
2023-12-24T18:22:31.037Z,4.27
2023-12-24T18:25:01.133Z,3.80
2023-12-24T18:27:31.252Z,4.27
2023-12-24T18:30:00.580Z,4.53
2023-12-24T18:32:30.456Z,4.97
2023-12-24T18:35:00.923Z,3.80
2023-12-24T18:37:34.559Z,5.03
2023-12-24T18:40:06.692Z,4.07
2023-12-24T18:42:36.158Z,3.93
2023-12-24T18:45:06.409Z,4.37
2023-12-24T18:47:36.304Z,4.40
2023-12-24T18:50:07.157Z,4.00
2023-12-24T18:52:37.370Z,4.27
2023-12-24T18:55:08.987Z,4.43
2023-12-24T18:57:38.242Z,4.37
2023-12-24T19:00:12.197Z,4.70
2023-12-24T19:02:43.398Z,4.27
2023-12-24T19:05:21.916Z,5.23
2023-12-24T19:07:53.782Z,4.53
2023-12-24T19:10:27.384Z,4.47
2023-12-24T19:12:57.649Z,4.30
2023-12-24T19:15:27.812Z,4.27
2023-12-24T19:18:00.969Z,3.73
2023-12-24T19:20:31.792Z,4.30
2023-12-24T19:23:08.636Z,3.77
2023-12-24T19:25:38.341Z,2.87
2023-12-24T19:28:08.691Z,3.90
2023-12-24T19:30:39.251Z,4.07
2023-12-24T19:33:11.377Z,4.70
2023-12-24T19:35:40.996Z,2.80
2023-12-24T19:38:13.146Z,3.43
2023-12-24T19:40:43.934Z,4.33
2023-12-24T19:43:20.038Z,3.80
2023-12-24T19:45:54.400Z,3.50
2023-12-24T19:48:25.625Z,3.50
2023-12-24T19:50:58.392Z,2.90
2023-12-24T19:53:29.855Z,3.00
2023-12-24T19:56:03.879Z,2.67
2023-12-24T19:58:36.354Z,2.40
2023-12-24T20:01:06.175Z,3.50
2023-12-24T20:03:35.459Z,3.03
2023-12-24T20:06:05.287Z,2.40
2023-12-24T20:08:37.383Z,3.03
2023-12-24T20:11:08.240Z,2.60
2023-12-24T20:13:37.812Z,2.27
2023-12-24T20:16:08.984Z,2.87
2023-12-24T20:18:39.319Z,3.10
2023-12-24T20:21:09.362Z,2.20
2023-12-24T20:23:43.574Z,3.00
2023-12-24T20:26:13.959Z,2.73
2023-12-24T20:28:45.333Z,3.20
2023-12-24T20:31:15.699Z,2.80
2023-12-24T20:33:49.902Z,3.50
2023-12-24T20:36:20.904Z,2.53
2023-12-24T20:38:53.453Z,2.97
2023-12-24T20:41:30.353Z,2.37
2023-12-24T20:44:00.244Z,2.73
2023-12-24T20:46:29.991Z,3.10
2023-12-24T20:49:06.006Z,2.30
2023-12-24T20:51:36.001Z,2.57
2023-12-24T20:54:08.204Z,1.70
2023-12-24T20:56:38.205Z,1.73
2023-12-24T20:59:07.930Z,2.20
2023-12-24T21:01:38.292Z,2.53
2023-12-24T21:04:08.000Z,3.00
2023-12-24T21:06:38.162Z,2.17
2023-12-24T21:09:10.713Z,1.93
2023-12-24T21:11:41.511Z,2.80
2023-12-24T21:14:11.494Z,2.37
2023-12-24T21:16:40.724Z,2.93
2023-12-24T21:19:11.455Z,2.77
2023-12-24T21:21:42.987Z,2.87
2023-12-24T21:24:13.938Z,2.70
2023-12-24T21:26:43.392Z,2.63
2023-12-24T21:29:13.377Z,2.67
2023-12-24T21:31:44.137Z,1.90
2023-12-24T21:34:14.747Z,2.90
2023-12-24T21:36:46.092Z,2.20
2023-12-24T21:39:16.769Z,1.93
2023-12-24T21:41:47.893Z,2.60
2023-12-24T21:44:18.664Z,2.57
2023-12-24T21:46:49.220Z,2.40
2023-12-24T21:49:23.257Z,2.80
2023-12-24T21:51:54.824Z,2.90
2023-12-24T21:54:33.656Z,2.20
2023-12-24T21:57:05.255Z,2.27
2023-12-24T21:59:37.136Z,2.57
2023-12-24T22:02:17.546Z,2.67
2023-12-24T22:04:47.413Z,2.90
2023-12-24T22:07:16.941Z,3.10
2023-12-24T22:09:49.723Z,2.90
2023-12-24T22:12:20.645Z,2.60
2023-12-24T22:14:54.089Z,3.27
2023-12-24T22:17:24.500Z,3.10
2023-12-24T22:19:55.981Z,3.93
2023-12-24T22:22:26.839Z,3.83
2023-12-24T22:25:00.935Z,3.63
2023-12-24T22:27:31.441Z,4.20
2023-12-24T22:30:03.975Z,5.57
2023-12-24T22:32:34.498Z,3.90
2023-12-24T22:35:04.680Z,3.87
2023-12-24T22:37:34.311Z,3.20
2023-12-24T22:40:07.896Z,4.00
2023-12-24T22:42:38.384Z,3.80
2023-12-24T22:45:09.622Z,4.53
2023-12-24T22:47:39.099Z,2.93
2023-12-24T22:50:12.218Z,3.33
2023-12-24T22:52:43.991Z,3.10
2023-12-24T22:55:16.456Z,2.70
2023-12-24T22:57:46.080Z,3.00
2023-12-24T23:00:17.073Z,2.87
2023-12-24T23:02:46.178Z,2.73
2023-12-24T23:05:17.189Z,2.30
2023-12-24T23:07:46.947Z,3.50
2023-12-24T23:10:32.992Z,2.57
2023-12-24T23:13:06.066Z,2.87
2023-12-24T23:15:35.661Z,2.73
2023-12-24T23:18:06.126Z,3.13
2023-12-24T23:20:41.930Z,3.03
2023-12-24T23:23:13.475Z,2.83
2023-12-24T23:25:45.259Z,3.20
2023-12-24T23:28:15.349Z,3.30
2023-12-24T23:30:45.403Z,3.17
2023-12-24T23:33:16.016Z,3.20
2023-12-24T23:35:57.569Z,2.57
2023-12-24T23:38:35.448Z,2.83
2023-12-24T23:41:07.181Z,3.10
2023-12-24T23:43:39.459Z,2.60
2023-12-24T23:46:11.778Z,2.43
2023-12-24T23:48:43.928Z,2.77
2023-12-24T23:51:13.351Z,2.10
2023-12-24T23:53:42.771Z,1.83
2023-12-24T23:56:15.669Z,2.10
2023-12-24T23:58:45.772Z,2.00
